Cleveland, Ohio
Traffic Map
Current Weather Conditions
Cleveland, Ohio
Overcast
Overcast

Feels Like: -1°
Wind Chill: -1° Ceiling: 3500
Heat Index: Visibility: 10mi
Dew Point: -2° Wind: 14mph
Humidity: 67% Direction: 240° (WSW)
Pressure: 30.3in Gusts: 0mph
Raw Report DataKBKL 032153Z 24012KT 10SM OVC035 04/M02 A3030 RMK AO2 SLP263 T00391017
Traffic Incident Summary
Active as of:
Severity:
Category:
InformationThere was an issue retrieving the traffic information for this location. Please try a different location or try again shortly.
Advertisements
Track Severe Weather on mobile